Weather at Desert Star Landing Strip

Public forecast

Using degrees Fahrenheit for public forecast. Weather courtesy of forecast.io.

Closest aviation weather report (METAR) to Desert Star Landing Strip

Closest report is Gila Bend Af Aux Airport, 15.8 nm (29.3 km) SSW. Retrieved 2021/06/25 01:58 UTC (52 minutes ago):

KGXF 250158Z 23011KT 10SM FEW080 38/12 A2974 RMK AO2A MDT CU NW-N SLP057 T03800119

Closest aviation forecast (TAF) to Desert Star Landing Strip

Closest forecast is Luke Air Force Base, 27.1 nm (50.2 km) NNE. Retrieved 2021/06/24 21:18 UTC (6 hours ago):

TAF ETNG 242000Z 2421/2512 27004KT 9999 SCT040 TAF KLUF 242000Z 2420/2602 20012KT 9999 FEW150 QNH2977INS TEMPO 2420/2501 23012G20KT BECMG 2502/2503 VRB06KT 9999 FEW150 SCT250 QNH2976INS BECMG 2519/2520 21012G20KT 9999 SKC QNH2968INS TX39/2423Z TN27/2512Z